sensor_id;sensor_type;location;lat;lon;timestamp;pressure;altitude;pressure_sealevel;temperature;humidity
49459;BME280;35354;51.296;16.924;2023-04-05T00:01:19;100237.50;;;0.05;76.89
49459;BME280;35354;51.296;16.924;2023-04-05T00:03:45;100273.47;;;0.30;76.60
49459;BME280;35354;51.296;16.924;2023-04-05T00:06:11;100258.03;;;0.17;76.50
49459;BME280;35354;51.296;16.924;2023-04-05T00:08:37;100234.91;;;0.02;76.12
49459;BME280;35354;51.296;16.924;2023-04-05T00:11:02;100270.88;;;0.25;76.45
49459;BME280;35354;51.296;16.924;2023-04-05T00:13:27;100262.31;;;0.20;75.84
49459;BME280;35354;51.296;16.924;2023-04-05T00:15:53;100277.75;;;0.32;75.59
49459;BME280;35354;51.296;16.924;2023-04-05T00:18:21;100274.34;;;0.30;75.69
49459;BME280;35354;51.296;16.924;2023-04-05T00:20:48;100275.19;;;0.31;75.16
49459;BME280;35354;51.296;16.924;2023-04-05T00:23:14;100271.75;;;0.27;75.52
49459;BME280;35354;51.296;16.924;2023-04-05T00:25:42;100250.34;;;0.16;75.57
49459;BME280;35354;51.296;16.924;2023-04-05T00:28:07;100253.78;;;0.21;75.44
49459;BME280;35354;51.296;16.924;2023-04-05T00:30:33;100238.38;;;0.10;75.81
49459;BME280;35354;51.296;16.924;2023-04-05T00:32:58;100234.09;;;0.09;75.52
49459;BME280;35354;51.296;16.924;2023-04-05T00:35:29;100259.78;;;0.24;75.55
49459;BME280;35354;51.296;16.924;2023-04-05T00:37:55;100252.09;;;0.21;75.69
49459;BME280;35354;51.296;16.924;2023-04-05T00:40:21;100248.63;;;0.16;74.90
49459;BME280;35354;51.296;16.924;2023-04-05T00:42:46;100254.59;;;0.14;75.94
49459;BME280;35354;51.296;16.924;2023-04-05T00:45:12;100227.16;;;-0.06;75.15
49459;BME280;35354;51.296;16.924;2023-04-05T00:47:40;100219.41;;;-0.19;76.19
49459;BME280;35354;51.296;16.924;2023-04-05T00:50:06;100260.50;;;0.02;76.15
49459;BME280;35354;51.296;16.924;2023-04-05T00:52:34;100238.25;;;-0.11;76.14
49459;BME280;35354;51.296;16.924;2023-04-05T00:54:59;100235.69;;;-0.11;76.97
49459;BME280;35354;51.296;16.924;2023-04-05T00:57:25;100264.81;;;0.05;76.92
49459;BME280;35354;51.296;16.924;2023-04-05T00:59:50;100252.84;;;0.01;76.24
49459;BME280;35354;51.296;16.924;2023-04-05T01:04:46;100229.69;;;-0.15;76.58
49459;BME280;35354;51.296;16.924;2023-04-05T01:07:26;100254.50;;;-0.02;76.41
49459;BME280;35354;51.296;16.924;2023-04-05T01:09:58;100221.09;;;-0.24;75.90
49459;BME280;35354;51.296;16.924;2023-04-05T01:12:29;100263.88;;;-0.08;76.09
49459;BME280;35354;51.296;16.924;2023-04-05T01:14:57;100259.59;;;-0.12;77.78
49459;BME280;35354;51.296;16.924;2023-04-05T01:17:25;100229.56;;;-0.30;77.36
49459;BME280;35354;51.296;16.924;2023-04-05T01:19:57;100258.69;;;-0.14;78.05
49459;BME280;35354;51.296;16.924;2023-04-05T01:30:38;100211.66;;;-0.33;77.26
49459;BME280;35354;51.296;16.924;2023-04-05T01:33:16;100237.38;;;-0.10;77.69
49459;BME280;35354;51.296;16.924;2023-04-05T01:35:54;100240.81;;;-0.05;77.49
49459;BME280;35354;51.296;16.924;2023-04-05T01:38:23;100214.31;;;-0.15;77.66
49459;BME280;35354;51.296;16.924;2023-04-05T01:40:50;100182.69;;;-0.24;77.16
49459;BME280;35354;51.296;16.924;2023-04-05T01:43:16;100212.69;;;-0.02;77.79
49459;BME280;35354;51.296;16.924;2023-04-05T01:45:43;100205.88;;;0.00;77.16
49459;BME280;35354;51.296;16.924;2023-04-05T01:48:09;100222.13;;;0.05;77.37
49459;BME280;35354;51.296;16.924;2023-04-05T01:50:35;100220.38;;;0.01;77.63
49459;BME280;35354;51.296;16.924;2023-04-05T01:53:00;100234.91;;;0.08;77.57
49459;BME280;35354;51.296;16.924;2023-04-05T01:55:26;100221.22;;;-0.03;77.49
49459;BME280;35354;51.296;16.924;2023-04-05T01:57:53;100205.03;;;0.01;78.24
49459;BME280;35354;51.296;16.924;2023-04-05T02:00:19;100225.59;;;0.18;77.73
49459;BME280;35354;51.296;16.924;2023-04-05T02:02:45;100221.31;;;0.20;77.81
49459;BME280;35354;51.296;16.924;2023-04-05T02:05:11;100210.22;;;0.18;77.34
49459;BME280;35354;51.296;16.924;2023-04-05T02:07:36;100224.78;;;0.28;76.98
49459;BME280;35354;51.296;16.924;2023-04-05T02:10:01;100128.06;;;-0.31;77.50
49459;BME280;35354;51.296;16.924;2023-04-05T02:12:26;100211.94;;;0.23;77.68
49459;BME280;35354;51.296;16.924;2023-04-05T02:14:52;100191.41;;;0.11;77.12
49459;BME280;35354;51.296;16.924;2023-04-05T02:17:17;100195.66;;;0.08;77.65
49459;BME280;35354;51.296;16.924;2023-04-05T02:19:43;100217.06;;;0.17;78.14
49459;BME280;35354;51.296;16.924;2023-04-05T02:22:10;100199.03;;;-0.03;78.26
49459;BME280;35354;51.296;16.924;2023-04-05T02:24:35;100181.06;;;-0.10;78.44
49459;BME280;35354;51.296;16.924;2023-04-05T02:27:01;100211.84;;;0.02;78.53
49459;BME280;35354;51.296;16.924;2023-04-05T02:29:26;100193.91;;;-0.04;78.98
49459;BME280;35354;51.296;16.924;2023-04-05T02:31:52;100188.75;;;-0.09;79.47
49459;BME280;35354;51.296;16.924;2023-04-05T02:34:17;100187.88;;;-0.14;79.90
49459;BME280;35354;51.296;16.924;2023-04-05T02:36:42;100182.75;;;-0.17;80.26
49459;BME280;35354;51.296;16.924;2023-04-05T02:39:08;100179.34;;;-0.16;80.10
49459;BME280;35354;51.296;16.924;2023-04-05T02:41:35;100170.81;;;-0.16;80.19
49459;BME280;35354;51.296;16.924;2023-04-05T02:44:00;100174.22;;;-0.14;79.14
49459;BME280;35354;51.296;16.924;2023-04-05T02:46:25;100187.94;;;-0.02;79.07
49459;BME280;35354;51.296;16.924;2023-04-05T02:48:51;100158.81;;;-0.17;79.56
49459;BME280;35354;51.296;16.924;2023-04-05T02:51:16;100178.53;;;-0.04;80.27
49459;BME280;35354;51.296;16.924;2023-04-05T02:53:41;100156.28;;;-0.16;80.52
49459;BME280;35354;51.296;16.924;2023-04-05T02:56:09;100155.44;;;-0.15;80.80
49459;BME280;35354;51.296;16.924;2023-04-05T02:58:35;100178.56;;;0.04;80.33
49459;BME280;35354;51.296;16.924;2023-04-05T03:01:01;100150.34;;;-0.07;80.14
49459;BME280;35354;51.296;16.924;2023-04-05T03:03:31;100182.03;;;0.13;80.52
49459;BME280;35354;51.296;16.924;2023-04-05T03:06:00;100176.88;;;0.10;81.52
49459;BME280;35354;51.296;16.924;2023-04-05T03:08:31;100131.53;;;-0.20;81.53
49459;BME280;35354;51.296;16.924;2023-04-05T03:10:56;100145.22;;;-0.09;82.17
49459;BME280;35354;51.296;16.924;2023-04-05T03:13:21;100166.66;;;0.09;81.81
49459;BME280;35354;51.296;16.924;2023-04-05T03:15:47;100182.88;;;0.12;81.50
49459;BME280;35354;51.296;16.924;2023-04-05T03:18:12;100171.72;;;0.01;81.16
49459;BME280;35354;51.296;16.924;2023-04-05T03:20:37;100167.47;;;0.02;81.97
49459;BME280;35354;51.296;16.924;2023-04-05T03:23:07;100180.28;;;0.05;82.19
49459;BME280;35354;51.296;16.924;2023-04-05T03:25:35;100181.13;;;0.04;82.24
49459;BME280;35354;51.296;16.924;2023-04-05T03:28:05;100160.59;;;-0.06;82.34
49459;BME280;35354;51.296;16.924;2023-04-05T03:30:33;100181.13;;;0.04;81.81
49459;BME280;35354;51.296;16.924;2023-04-05T03:32:59;100173.41;;;-0.06;82.25
49459;BME280;35354;51.296;16.924;2023-04-05T03:35:26;100173.41;;;-0.01;82.67
49459;BME280;35354;51.296;16.924;2023-04-05T03:37:52;100183.69;;;0.04;82.80
49459;BME280;35354;51.296;16.924;2023-04-05T03:40:18;100158.84;;;-0.14;82.20
49459;BME280;35354;51.296;16.924;2023-04-05T03:42:43;100187.09;;;0.03;82.51
49459;BME280;35354;51.296;16.924;2023-04-05T03:45:09;100182.84;;;0.02;82.69
49459;BME280;35354;51.296;16.924;2023-04-05T03:47:35;100180.28;;;0.02;83.03
49459;BME280;35354;51.296;16.924;2023-04-05T03:50:01;100182.84;;;0.00;83.91
49459;BME280;35354;51.296;16.924;2023-04-05T03:52:27;100153.72;;;-0.14;83.14
49459;BME280;35354;51.296;16.924;2023-04-05T03:54:53;100152.88;;;-0.21;83.22
49459;BME280;35354;51.296;16.924;2023-04-05T03:57:18;100176.78;;;-0.11;83.06
49459;BME280;35354;51.296;16.924;2023-04-05T03:59:43;100157.94;;;-0.27;83.77
49459;BME280;35354;51.296;16.924;2023-04-05T04:02:09;100167.38;;;-0.20;83.94
49459;BME280;35354;51.296;16.924;2023-04-05T04:04:34;100152.78;;;-0.38;83.18
49459;BME280;35354;51.296;16.924;2023-04-05T04:06:59;100151.03;;;-0.39;83.39
49459;BME280;35354;51.296;16.924;2023-04-05T04:09:25;100180.13;;;-0.29;83.89
49459;BME280;35354;51.296;16.924;2023-04-05T04:11:52;100152.66;;;-0.52;83.65
49459;BME280;35354;51.296;16.924;2023-04-05T04:14:17;100182.59;;;-0.41;83.30
49459;BME280;35354;51.296;16.924;2023-04-05T04:16:42;100181.72;;;-0.45;83.81
49459;BME280;35354;51.296;16.924;2023-04-05T04:19:07;100158.59;;;-0.59;83.44
49459;BME280;35354;51.296;16.924;2023-04-05T04:21:33;100157.69;;;-0.64;83.65
49459;BME280;35354;51.296;16.924;2023-04-05T04:23:59;100181.66;;;-0.51;84.18
49459;BME280;35354;51.296;16.924;2023-04-05T04:26:25;100156.81;;;-0.70;83.63
49459;BME280;35354;51.296;16.924;2023-04-05T04:28:54;100157.66;;;-0.70;83.50
49459;BME280;35354;51.296;16.924;2023-04-05T04:31:19;100180.72;;;-0.65;83.55
49459;BME280;35354;51.296;16.924;2023-04-05T04:33:48;100188.47;;;-0.56;83.22
49459;BME280;35354;51.296;16.924;2023-04-05T04:36:14;100197.84;;;-0.58;83.51
49459;BME280;35354;51.296;16.924;2023-04-05T04:38:42;100183.31;;;-0.62;83.93
49459;BME280;35354;51.296;16.924;2023-04-05T04:41:12;100195.28;;;-0.57;83.84
49459;BME280;35354;51.296;16.924;2023-04-05T04:43:37;100191.00;;;-0.58;83.60
49459;BME280;35354;51.296;16.924;2023-04-05T04:46:09;100201.25;;;-0.58;84.23
49459;BME280;35354;51.296;16.924;2023-04-05T04:48:40;100185.84;;;-0.65;84.60
49459;BME280;35354;51.296;16.924;2023-04-05T04:51:06;100196.09;;;-0.59;85.37
49459;BME280;35354;51.296;16.924;2023-04-05T04:53:31;100203.78;;;-0.59;85.11
49459;BME280;35354;51.296;16.924;2023-04-05T04:55:56;100198.66;;;-0.59;85.34
49459;BME280;35354;51.296;16.924;2023-04-05T04:58:22;100194.47;;;-0.53;85.96
49459;BME280;35354;51.296;16.924;2023-04-05T05:00:47;100176.50;;;-0.56;84.83
49459;BME280;35354;51.296;16.924;2023-04-05T05:03:13;100191.19;;;-0.32;84.71
49459;BME280;35354;51.296;16.924;2023-04-05T05:05:42;100193.84;;;-0.15;85.08
49459;BME280;35354;51.296;16.924;2023-04-05T05:08:07;100183.66;;;-0.07;84.59
49459;BME280;35354;51.296;16.924;2023-04-05T05:10:33;100152.13;;;0.09;84.06
49459;BME280;35354;51.296;16.924;2023-04-05T05:12:58;100161.66;;;0.53;83.14
49459;BME280;35354;51.296;16.924;2023-04-05T05:15:24;100173.69;;;1.06;82.62
49459;BME280;35354;51.296;16.924;2023-04-05T05:17:49;100172.78;;;1.52;80.59
49459;BME280;35354;51.296;16.924;2023-04-05T05:20:17;100181.34;;;1.73;79.81
49459;BME280;35354;51.296;16.924;2023-04-05T05:22:43;100182.16;;;1.72;78.64
49459;BME280;35354;51.296;16.924;2023-04-05T05:25:08;100160.81;;;1.50;79.15
49459;BME280;35354;51.296;16.924;2023-04-05T05:27:34;100117.28;;;1.14;78.48
49459;BME280;35354;51.296;16.924;2023-04-05T05:29:59;100189.06;;;1.54;79.24
49459;BME280;35354;51.296;16.924;2023-04-05T05:32:25;100196.69;;;2.03;78.97
49459;BME280;35354;51.296;16.924;2023-04-05T05:34:50;100193.94;;;2.41;77.01
49459;BME280;35354;51.296;16.924;2023-04-05T05:37:16;100190.47;;;2.48;75.93
49459;BME280;35354;51.296;16.924;2023-04-05T05:39:42;100174.13;;;2.57;75.70
49459;BME280;35354;51.296;16.924;2023-04-05T05:42:09;100134.88;;;2.33;74.88
49459;BME280;35354;51.296;16.924;2023-04-05T05:44:34;100197.44;;;2.21;75.18
49459;BME280;35354;51.296;16.924;2023-04-05T05:47:00;100177.00;;;1.85;75.87
49459;BME280;35354;51.296;16.924;2023-04-05T05:49:27;100199.28;;;1.86;76.46
49459;BME280;35354;51.296;16.924;2023-04-05T05:51:52;100201.88;;;1.47;77.66
49459;BME280;35354;51.296;16.924;2023-04-05T05:54:17;100207.03;;;1.00;79.15
49459;BME280;35354;51.296;16.924;2023-04-05T05:56:43;100205.28;;;0.70;80.54
49459;BME280;35354;51.296;16.924;2023-04-05T05:59:09;100206.97;;;0.62;82.17
49459;BME280;35354;51.296;16.924;2023-04-05T06:01:34;100180.34;;;0.24;82.43
49459;BME280;35354;51.296;16.924;2023-04-05T06:04:06;100215.41;;;0.30;83.94
49459;BME280;35354;51.296;16.924;2023-04-05T06:06:32;100182.00;;;0.12;84.59
49459;BME280;35354;51.296;16.924;2023-04-05T06:08:58;100214.50;;;0.20;84.94
49459;BME280;35354;51.296;16.924;2023-04-05T06:11:23;100189.66;;;0.03;85.29
49459;BME280;35354;51.296;16.924;2023-04-05T06:13:49;100203.38;;;0.14;85.44
49459;BME280;35354;51.296;16.924;2023-04-05T06:16:19;100175.19;;;0.15;84.98
49459;BME280;35354;51.296;16.924;2023-04-05T06:18:45;100203.50;;;0.50;84.24
49459;BME280;35354;51.296;16.924;2023-04-05T06:21:10;100198.41;;;0.58;83.58
49459;BME280;35354;51.296;16.924;2023-04-05T06:23:35;100191.59;;;0.63;83.76
49459;BME280;35354;51.296;16.924;2023-04-05T06:26:01;100214.69;;;0.77;83.45
49459;BME280;35354;51.296;16.924;2023-04-05T06:28:26;100218.97;;;0.73;84.06
49459;BME280;35354;51.296;16.924;2023-04-05T06:30:54;100195.84;;;0.57;83.88
49459;BME280;35354;51.296;16.924;2023-04-05T06:33:22;100189.84;;;0.42;84.41
49459;BME280;35354;51.296;16.924;2023-04-05T06:35:47;100208.63;;;0.50;84.43
49459;BME280;35354;51.296;16.924;2023-04-05T06:38:12;100211.19;;;0.44;84.39
49459;BME280;35354;51.296;16.924;2023-04-05T06:40:38;100215.50;;;0.56;85.37
49459;BME280;35354;51.296;16.924;2023-04-05T06:43:03;100216.34;;;0.55;86.26
49459;BME280;35354;51.296;16.924;2023-04-05T06:45:28;100214.59;;;0.49;85.17
49459;BME280;35354;51.296;16.924;2023-04-05T06:47:54;100195.78;;;0.37;86.38
49459;BME280;35354;51.296;16.924;2023-04-05T06:50:19;100212.06;;;0.46;85.99
49459;BME280;35354;51.296;16.924;2023-04-05T06:52:44;100186.38;;;0.33;85.91
49459;BME280;35354;51.296;16.924;2023-04-05T06:55:10;100185.50;;;0.29;85.95
49459;BME280;35354;51.296;16.924;2023-04-05T06:57:35;100223.13;;;0.44;85.97
49459;BME280;35354;51.296;16.924;2023-04-05T07:00:01;100218.88;;;0.47;87.11
49459;BME280;35354;51.296;16.924;2023-04-05T07:02:26;100207.75;;;0.44;87.28
49459;BME280;35354;51.296;16.924;2023-04-05T07:04:51;100214.66;;;0.56;87.17
49459;BME280;35354;51.296;16.924;2023-04-05T07:07:17;100217.22;;;0.62;87.71
49459;BME280;35354;51.296;16.924;2023-04-05T07:09:43;100219.75;;;0.54;87.78
49459;BME280;35354;51.296;16.924;2023-04-05T07:12:08;100224.00;;;0.50;87.60
49459;BME280;35354;51.296;16.924;2023-04-05T07:14:36;100228.28;;;0.50;87.39
49459;BME280;35354;51.296;16.924;2023-04-05T07:17:05;100230.84;;;0.53;88.30
49459;BME280;35354;51.296;16.924;2023-04-05T07:19:31;100221.47;;;0.61;88.24
49459;BME280;35354;51.296;16.924;2023-04-05T07:21:58;100210.47;;;1.10;87.20
49459;BME280;35354;51.296;16.924;2023-04-05T07:24:23;100187.38;;;0.90;86.95
49459;BME280;35354;51.296;16.924;2023-04-05T07:26:48;100205.31;;;0.91;87.37
49459;BME280;35354;51.296;16.924;2023-04-05T07:29:14;100208.75;;;1.25;88.11
49459;BME280;35354;51.296;16.924;2023-04-05T07:31:40;100203.59;;;1.52;86.38
49459;BME280;35354;51.296;16.924;2023-04-05T07:34:05;100200.19;;;1.46;85.13
49459;BME280;35354;51.296;16.924;2023-04-05T07:36:31;100188.19;;;1.52;84.68
49459;BME280;35354;51.296;16.924;2023-04-05T07:38:56;100177.84;;;1.93;83.93
49459;BME280;35354;51.296;16.924;2023-04-05T07:41:24;100202.66;;;2.08;82.59
49459;BME280;35354;51.296;16.924;2023-04-05T07:43:50;100199.28;;;1.87;83.63
49459;BME280;35354;51.296;16.924;2023-04-05T07:46:15;100152.09;;;2.11;82.39
49459;BME280;35354;51.296;16.924;2023-04-05T07:48:41;100197.34;;;2.43;81.02
49459;BME280;35354;51.296;16.924;2023-04-05T07:51:07;100171.69;;;2.34;81.68
49459;BME280;35354;51.296;16.924;2023-04-05T07:53:35;100174.50;;;3.28;81.96
49459;BME280;35354;51.296;16.924;2023-04-05T07:56:07;100184.56;;;4.32;77.66
49459;BME280;35354;51.296;16.924;2023-04-05T07:58:33;100186.53;;;4.78;75.12
49459;BME280;35354;51.296;16.924;2023-04-05T08:01:02;100161.94;;;5.11;74.81
49459;BME280;35354;51.296;16.924;2023-04-05T08:03:29;100171.75;;;7.11;71.03
49459;BME280;35354;51.296;16.924;2023-04-05T08:05:55;100153.63;;;8.40;65.32
49459;BME280;35354;51.296;16.924;2023-04-05T08:08:21;100125.13;;;8.07;63.87
49459;BME280;35354;51.296;16.924;2023-04-05T08:10:47;100173.16;;;9.34;62.21
49459;BME280;35354;51.296;16.924;2023-04-05T08:13:12;100162.22;;;8.11;61.85
49459;BME280;35354;51.296;16.924;2023-04-05T08:15:38;100163.50;;;6.58;65.87
49459;BME280;35354;51.296;16.924;2023-04-05T08:18:04;100174.00;;;6.89;67.59
49459;BME280;35354;51.296;16.924;2023-04-05T08:20:30;100171.78;;;7.09;66.62
49459;BME280;35354;51.296;16.924;2023-04-05T08:22:55;100161.94;;;6.86;67.00
49459;BME280;35354;51.296;16.924;2023-04-05T08:25:20;100174.06;;;6.86;66.77
49459;BME280;35354;51.296;16.924;2023-04-05T08:27:46;100159.81;;;7.39;65.67
49459;BME280;35354;51.296;16.924;2023-04-05T08:30:11;100156.47;;;6.63;65.78
49459;BME280;35354;51.296;16.924;2023-04-05T08:32:37;100180.91;;;6.08;67.77
49459;BME280;35354;51.296;16.924;2023-04-05T08:35:02;100162.38;;;6.68;66.44
49459;BME280;35354;51.296;16.924;2023-04-05T08:37:28;100183.22;;;6.21;67.08
49459;BME280;35354;51.296;16.924;2023-04-05T08:39:53;100182.38;;;5.73;68.74
49459;BME280;35354;51.296;16.924;2023-04-05T08:42:27;100182.56;;;6.10;68.83
49459;BME280;35354;51.296;16.924;2023-04-05T08:44:56;100181.44;;;6.23;68.54
49459;BME280;35354;51.296;16.924;2023-04-05T08:47:22;100152.38;;;6.12;69.21
49459;BME280;35354;51.296;16.924;2023-04-05T08:49:48;100162.53;;;6.21;69.12
49459;BME280;35354;51.296;16.924;2023-04-05T08:52:13;100159.53;;;6.80;67.02
49459;BME280;35354;51.296;16.924;2023-04-05T08:54:39;100162.75;;;6.90;66.83
49459;BME280;35354;51.296;16.924;2023-04-05T08:57:08;100173.59;;;6.68;66.63
49459;BME280;35354;51.296;16.924;2023-04-05T08:59:38;100156.88;;;7.19;65.07
49459;BME280;35354;51.296;16.924;2023-04-05T09:02:17;100155.97;;;7.20;64.81
49459;BME280;35354;51.296;16.924;2023-04-05T09:04:43;100138.84;;;6.79;65.33
49459;BME280;35354;51.296;16.924;2023-04-05T09:07:11;100158.97;;;7.37;64.23
49459;BME280;35354;51.296;16.924;2023-04-05T09:09:38;100163.34;;;7.01;63.94
49459;BME280;35354;51.296;16.924;2023-04-05T09:12:06;100146.84;;;6.29;65.65
49459;BME280;35354;51.296;16.924;2023-04-05T09:14:35;100159.63;;;6.35;65.75
49459;BME280;35354;51.296;16.924;2023-04-05T09:17:02;100170.06;;;6.32;66.08
49459;BME280;35354;51.296;16.924;2023-04-05T09:19:28;100165.25;;;5.69;68.91
49459;BME280;35354;51.296;16.924;2023-04-05T09:22:01;100167.22;;;5.55;69.31
49459;BME280;35354;51.296;16.924;2023-04-05T09:27:13;100167.59;;;5.33;67.74
49459;BME280;35354;51.296;16.924;2023-04-05T09:29:43;100162.63;;;5.21;68.87
49459;BME280;35354;51.296;16.924;2023-04-05T09:32:10;100127.44;;;5.65;67.42
49459;BME280;35354;51.296;16.924;2023-04-05T09:34:37;100165.03;;;5.80;67.21
49459;BME280;35354;51.296;16.924;2023-04-05T09:37:15;100163.69;;;5.59;65.75
49459;BME280;35354;51.296;16.924;2023-04-05T09:39:41;100143.06;;;6.04;65.31
49459;BME280;35354;51.296;16.924;2023-04-05T09:44:54;100157.63;;;5.61;65.80
49459;BME280;35354;51.296;16.924;2023-04-05T09:47:22;100158.16;;;5.79;66.42
49459;BME280;35354;51.296;16.924;2023-04-05T09:49:49;100145.94;;;5.87;65.68
49459;BME280;35354;51.296;16.924;2023-04-05T09:52:19;100147.22;;;5.64;65.48
49459;BME280;35354;51.296;16.924;2023-04-05T09:54:45;100132.72;;;5.57;66.79
49459;BME280;35354;51.296;16.924;2023-04-05T09:57:14;100151.53;;;6.12;65.36
49459;BME280;35354;51.296;16.924;2023-04-05T09:59:40;100150.47;;;5.75;65.91
49459;BME280;35354;51.296;16.924;2023-04-05T10:02:06;100126.00;;;5.47;66.95
49459;BME280;35354;51.296;16.924;2023-04-05T10:04:40;100150.56;;;6.16;65.77
49459;BME280;35354;51.296;16.924;2023-04-05T10:07:13;100139.16;;;5.81;65.65
49459;BME280;35354;51.296;16.924;2023-04-05T10:09:40;100114.72;;;5.53;66.29
49459;BME280;35354;51.296;16.924;2023-04-05T10:12:06;100133.06;;;6.27;65.83
49459;BME280;35354;51.296;16.924;2023-04-05T10:14:34;100138.00;;;6.39;64.67
49459;BME280;35354;51.296;16.924;2023-04-05T10:17:15;100125.56;;;6.15;65.57
49459;BME280;35354;51.296;16.924;2023-04-05T10:22:40;100116.97;;;6.55;65.22
49459;BME280;35354;51.296;16.924;2023-04-05T10:27:52;100125.88;;;6.41;64.82
49459;BME280;35354;51.296;16.924;2023-04-05T10:30:18;100111.44;;;6.31;64.60
49459;BME280;35354;51.296;16.924;2023-04-05T10:35:16;100136.41;;;5.89;67.03
49459;BME280;35354;51.296;16.924;2023-04-05T10:38:23;100140.78;;;5.87;66.63
49459;BME280;35354;51.296;16.924;2023-04-05T10:40:45;100132.22;;;5.37;70.50
49459;BME280;35354;51.296;16.924;2023-04-05T10:43:15;100129.31;;;5.57;69.64
49459;BME280;35354;51.296;16.924;2023-04-05T10:45:43;100116.47;;;5.97;68.12
49459;BME280;35354;51.296;16.924;2023-04-05T10:48:41;100126.41;;;5.72;68.65
49459;BME280;35354;51.296;16.924;2023-04-05T10:51:08;100109.06;;;5.79;69.27
49459;BME280;35354;51.296;16.924;2023-04-05T10:53:36;100096.88;;;6.27;67.20
49459;BME280;35354;51.296;16.924;2023-04-05T10:56:02;100111.53;;;6.28;68.55
49459;BME280;35354;51.296;16.924;2023-04-05T10:58:28;100109.88;;;6.24;68.89
49459;BME280;35354;51.296;16.924;2023-04-05T11:00:54;100126.09;;;6.71;68.41
49459;BME280;35354;51.296;16.924;2023-04-05T11:03:48;100121.81;;;6.30;69.99
49459;BME280;35354;51.296;16.924;2023-04-05T11:08:54;100117.19;;;6.44;71.50
49459;BME280;35354;51.296;16.924;2023-04-05T11:11:22;100086.59;;;6.24;71.17
49459;BME280;35354;51.296;16.924;2023-04-05T11:13:55;100120.88;;;6.34;72.30
49459;BME280;35354;51.296;16.924;2023-04-05T11:16:23;100123.28;;;6.80;72.42
49459;BME280;35354;51.296;16.924;2023-04-05T11:18:51;100103.03;;;7.30;70.57
49459;BME280;35354;51.296;16.924;2023-04-05T11:21:24;100109.56;;;7.45;69.17
49459;BME280;35354;51.296;16.924;2023-04-05T11:24:08;100083.00;;;7.37;69.54
49459;BME280;35354;51.296;16.924;2023-04-05T11:29:06;100100.03;;;7.45;70.34
49459;BME280;35354;51.296;16.924;2023-04-05T11:31:32;100083.97;;;7.33;69.20
49459;BME280;35354;51.296;16.924;2023-04-05T11:34:06;100097.41;;;8.09;67.87
49459;BME280;35354;51.296;16.924;2023-04-05T11:36:38;100062.66;;;7.54;67.88
49459;BME280;35354;51.296;16.924;2023-04-05T11:42:09;100098.91;;;8.16;65.50
49459;BME280;35354;51.296;16.924;2023-04-05T11:44:44;100090.97;;;8.52;64.02
49459;BME280;35354;51.296;16.924;2023-04-05T11:47:10;100089.59;;;8.68;62.93
49459;BME280;35354;51.296;16.924;2023-04-05T11:49:36;100087.84;;;8.67;63.15
49459;BME280;35354;51.296;16.924;2023-04-05T11:52:16;100083.66;;;8.63;63.66
49459;BME280;35354;51.296;16.924;2023-04-05T11:54:42;100090.44;;;8.67;64.26
49459;BME280;35354;51.296;16.924;2023-04-05T11:57:12;100106.56;;;8.79;65.88
49459;BME280;35354;51.296;16.924;2023-04-05T11:59:38;100117.03;;;7.88;66.30
49459;BME280;35354;51.296;16.924;2023-04-05T12:02:05;100100.78;;;7.50;68.41
49459;BME280;35354;51.296;16.924;2023-04-05T12:04:33;100082.78;;;7.12;70.19
49459;BME280;35354;51.296;16.924;2023-04-05T12:07:17;100109.75;;;7.05;71.54
49459;BME280;35354;51.296;16.924;2023-04-05T12:12:32;100121.81;;;6.30;75.68
49459;BME280;35354;51.296;16.924;2023-04-05T12:14:59;100125.41;;;5.79;78.10
49459;BME280;35354;51.296;16.924;2023-04-05T12:17:38;100102.91;;;5.39;79.27
49459;BME280;35354;51.296;16.924;2023-04-05T12:20:04;100087.72;;;5.22;80.75
49459;BME280;35354;51.296;16.924;2023-04-05T12:22:30;100109.88;;;5.36;80.86
49459;BME280;35354;51.296;16.924;2023-04-05T12:24:56;100120.28;;;5.31;81.75
49459;BME280;35354;51.296;16.924;2023-04-05T12:27:21;100083.34;;;4.77;82.09
49459;BME280;35354;51.296;16.924;2023-04-05T12:30:06;100124.81;;;5.17;83.07
49459;BME280;35354;51.296;16.924;2023-04-05T12:32:44;100124.44;;;4.89;84.36
49459;BME280;35354;51.296;16.924;2023-04-05T12:35:30;100134.41;;;4.53;86.19
49459;BME280;35354;51.296;16.924;2023-04-05T12:38:01;100081.28;;;4.43;86.57
49459;BME280;35354;51.296;16.924;2023-04-05T12:40:27;100130.97;;;4.54;86.36
49459;BME280;35354;51.296;16.924;2023-04-05T12:43:06;100099.31;;;4.43;86.82
49459;BME280;35354;51.296;16.924;2023-04-05T12:45:32;100123.22;;;4.56;85.84
49459;BME280;35354;51.296;16.924;2023-04-05T12:48:23;100109.25;;;4.67;85.66
49459;BME280;35354;51.296;16.924;2023-04-05T12:50:50;100069.75;;;4.65;83.33
49459;BME280;35354;51.296;16.924;2023-04-05T12:53:18;100100.41;;;4.84;83.67
49459;BME280;35354;51.296;16.924;2023-04-05T12:55:54;100100.22;;;4.97;82.79
49459;BME280;35354;51.296;16.924;2023-04-05T12:58:22;100070.03;;;4.99;83.17
49459;BME280;35354;51.296;16.924;2023-04-05T13:00:48;100102.66;;;5.51;82.47
49459;BME280;35354;51.296;16.924;2023-04-05T13:03:25;100094.25;;;5.87;82.89
49459;BME280;35354;51.296;16.924;2023-04-05T13:05:51;100086.28;;;5.97;81.78
49459;BME280;35354;51.296;16.924;2023-04-05T13:08:17;100065.06;;;5.80;80.06
49459;BME280;35354;51.296;16.924;2023-04-05T13:10:44;100086.19;;;6.02;80.33
49459;BME280;35354;51.296;16.924;2023-04-05T13:13:11;100076.53;;;6.10;79.97
49459;BME280;35354;51.296;16.924;2023-04-05T13:15:37;100081.59;;;6.16;79.80
49459;BME280;35354;51.296;16.924;2023-04-05T13:18:04;100083.88;;;6.30;79.63
49459;BME280;35354;51.296;16.924;2023-04-05T13:20:30;100057.47;;;6.14;77.59
49459;BME280;35354;51.296;16.924;2023-04-05T13:22:56;100042.31;;;5.99;73.48
49459;BME280;35354;51.296;16.924;2023-04-05T13:25:22;100047.63;;;5.91;71.58